createdAt,value
2019-02-25T00:00:38.585Z,923.17
2019-02-25T00:02:10.403Z,923.16
2019-02-25T00:03:42.320Z,923.14
2019-02-25T00:05:14.037Z,923.17
2019-02-25T00:06:45.853Z,923.14
2019-02-25T00:08:17.672Z,923.18
2019-02-25T00:09:49.489Z,923.15
2019-02-25T00:11:21.306Z,923.24
2019-02-25T00:12:53.124Z,923.27
2019-02-25T00:14:24.941Z,923.27
2019-02-25T00:15:56.761Z,923.23
2019-02-25T00:17:28.575Z,923.33
2019-02-25T00:19:00.392Z,923.13
2019-02-25T00:20:32.211Z,923.22
2019-02-25T00:22:04.129Z,923.33
2019-02-25T00:23:35.845Z,923.06
2019-02-25T00:25:07.678Z,923.32
2019-02-25T00:26:39.480Z,923.37
2019-02-25T00:28:11.299Z,923.37
2019-02-25T00:29:43.116Z,923.34
2019-02-25T00:31:14.935Z,923.58
2019-02-25T00:32:46.751Z,923.36
2019-02-25T00:34:18.569Z,923.34
2019-02-25T00:35:50.386Z,923.39
2019-02-25T00:37:22.203Z,923.53
2019-02-25T00:38:54.023Z,923.44
2019-02-25T00:40:27.613Z,923.42
2019-02-25T00:41:57.661Z,923.43
2019-02-25T00:43:29.475Z,923.67
2019-02-25T00:45:01.292Z,923.58
2019-02-25T00:46:33.109Z,923.61
2019-02-25T00:48:04.927Z,923.61
2019-02-25T00:49:36.744Z,923.52
2019-02-25T00:51:08.562Z,923.48
2019-02-25T00:52:40.379Z,923.64
2019-02-25T00:54:12.196Z,923.53
2019-02-25T00:55:44.014Z,923.61
2019-02-25T00:57:15.837Z,923.67
2019-02-25T00:58:47.747Z,923.61
2019-02-25T01:00:19.464Z,923.61
2019-02-25T01:01:51.283Z,923.52
2019-02-25T01:03:23.100Z,923.58
2019-02-25T01:04:54.918Z,923.55
2019-02-25T01:06:26.733Z,923.52
2019-02-25T01:07:58.552Z,923.61
2019-02-25T01:09:30.369Z,923.50
2019-02-25T01:11:02.185Z,923.47
2019-02-25T01:12:34.004Z,923.52
2019-02-25T01:14:05.819Z,923.50
2019-02-25T01:15:37.639Z,923.64
2019-02-25T01:17:09.554Z,923.51
2019-02-25T01:18:41.275Z,923.54
2019-02-25T01:20:13.089Z,923.58
2019-02-25T01:21:44.906Z,923.49
2019-02-25T01:23:16.723Z,923.54
2019-02-25T01:24:48.540Z,923.52
2019-02-25T01:26:20.357Z,923.56
2019-02-25T01:27:52.176Z,923.56
2019-02-25T01:29:23.989Z,923.61
2019-02-25T01:30:55.808Z,923.64
2019-02-25T01:32:27.623Z,923.54
2019-02-25T01:33:59.442Z,923.62
2019-02-25T01:35:31.360Z,923.61
2019-02-25T01:37:03.075Z,923.63
2019-02-25T01:38:34.893Z,923.63
2019-02-25T01:40:06.709Z,923.64
2019-02-25T01:41:38.526Z,923.73
2019-02-25T01:43:10.344Z,923.74
2019-02-25T01:44:42.160Z,923.64
2019-02-25T01:46:13.977Z,923.76
2019-02-25T01:47:45.793Z,923.66
2019-02-25T01:49:17.610Z,923.57
2019-02-25T01:50:49.427Z,923.50
2019-02-25T01:52:21.244Z,923.60
2019-02-25T01:53:53.211Z,923.62
2019-02-25T01:55:24.880Z,923.55
2019-02-25T01:56:56.737Z,923.61
2019-02-25T01:58:28.511Z,923.57
2019-02-25T02:00:00.359Z,923.47
2019-02-25T02:01:32.143Z,923.44
2019-02-25T02:03:03.962Z,923.42
2019-02-25T02:04:35.776Z,923.38
2019-02-25T02:06:07.592Z,923.36
2019-02-25T02:07:39.410Z,923.37
2019-02-25T02:09:11.226Z,923.31
2019-02-25T02:10:43.042Z,923.36
2019-02-25T02:12:15.210Z,923.36
2019-02-25T02:13:46.676Z,923.39
2019-02-25T02:15:18.492Z,923.42
2019-02-25T02:16:50.310Z,923.43
2019-02-25T02:18:22.126Z,923.41
2019-02-25T02:19:53.944Z,923.40
2019-02-25T02:21:25.760Z,923.35
2019-02-25T02:22:57.576Z,923.28
2019-02-25T02:24:29.393Z,923.24
2019-02-25T02:26:01.210Z,923.20
2019-02-25T02:27:33.031Z,923.17
2019-02-25T02:29:04.843Z,923.17
2019-02-25T02:30:37.013Z,923.14
2019-02-25T02:32:08.477Z,923.02
2019-02-25T02:33:40.294Z,923.03
2019-02-25T02:35:12.110Z,923.02
2019-02-25T02:36:43.927Z,923.08
2019-02-25T02:38:15.743Z,923.05
2019-02-25T02:39:47.565Z,923.09
2019-02-25T02:41:19.376Z,923.05
2019-02-25T02:42:51.193Z,923.10
2019-02-25T02:44:23.018Z,923.16
2019-02-25T02:45:54.877Z,923.11
2019-02-25T02:47:26.642Z,923.11
2019-02-25T02:48:58.559Z,923.05
2019-02-25T02:50:30.275Z,923.06
2019-02-25T02:52:02.093Z,923.10
2019-02-25T02:53:33.908Z,923.02
2019-02-25T02:55:05.724Z,923.09
2019-02-25T02:56:37.542Z,923.07
2019-02-25T02:58:09.358Z,923.04
2019-02-25T02:59:41.174Z,923.01
2019-02-25T03:01:12.991Z,923.00
2019-02-25T03:02:44.807Z,922.91
2019-02-25T03:04:16.623Z,922.92
2019-02-25T03:05:48.443Z,922.87
2019-02-25T03:07:20.356Z,922.78
2019-02-25T03:08:52.073Z,922.76
2019-02-25T03:10:23.889Z,922.75
2019-02-25T03:11:55.707Z,922.70
2019-02-25T03:13:27.524Z,922.74
2019-02-25T03:14:59.339Z,922.75
2019-02-25T03:16:31.157Z,922.73
2019-02-25T03:18:02.975Z,922.75
2019-02-25T03:19:34.789Z,922.83
2019-02-25T03:21:06.605Z,922.90
2019-02-25T03:22:38.421Z,922.87
2019-02-25T03:24:10.240Z,922.84
2019-02-25T03:25:42.155Z,922.87
2019-02-25T03:27:13.886Z,922.82
2019-02-25T03:28:45.688Z,922.83
2019-02-25T03:30:17.576Z,922.79
2019-02-25T03:31:49.322Z,922.78
2019-02-25T03:33:21.141Z,922.67
2019-02-25T03:34:52.953Z,922.63
2019-02-25T03:36:24.771Z,922.61
2019-02-25T03:37:56.585Z,922.63
2019-02-25T03:39:28.402Z,922.64
2019-02-25T03:41:00.219Z,922.62
2019-02-25T03:42:32.035Z,922.67
2019-02-25T03:44:03.951Z,922.65
2019-02-25T03:45:35.668Z,922.61
2019-02-25T03:47:07.485Z,922.58
2019-02-25T03:48:39.302Z,922.50
2019-02-25T03:50:11.119Z,922.51
2019-02-25T03:51:42.934Z,922.49
2019-02-25T03:53:14.751Z,922.49
2019-02-25T03:54:46.567Z,922.49
2019-02-25T03:56:18.385Z,922.51
2019-02-25T03:57:50.254Z,922.52
2019-02-25T03:59:22.016Z,922.44
2019-02-25T04:00:53.831Z,922.48
2019-02-25T04:02:25.749Z,922.38
2019-02-25T04:03:57.470Z,922.37
2019-02-25T04:05:29.280Z,922.32
2019-02-25T04:07:01.098Z,922.32
2019-02-25T04:08:32.915Z,922.30
2019-02-25T04:10:04.733Z,922.28
2019-02-25T04:11:36.546Z,922.28
2019-02-25T04:13:08.362Z,922.23
2019-02-25T04:14:40.180Z,922.25
2019-02-25T04:16:11.996Z,922.22
2019-02-25T04:17:43.813Z,922.24
2019-02-25T04:19:15.628Z,922.19
2019-02-25T04:20:47.550Z,922.21
2019-02-25T04:22:19.262Z,922.23
2019-02-25T04:23:51.078Z,922.24
2019-02-25T04:25:22.894Z,922.21
2019-02-25T04:26:55.774Z,922.11
2019-02-25T04:28:26.527Z,922.11
2019-02-25T04:29:58.345Z,922.13
2019-02-25T04:31:30.159Z,922.13
2019-02-25T04:33:01.977Z,922.10
2019-02-25T04:34:33.804Z,922.03
2019-02-25T04:36:05.610Z,921.93
2019-02-25T04:37:37.426Z,921.92
2019-02-25T04:39:09.344Z,921.92
2019-02-25T04:40:41.060Z,921.89
2019-02-25T04:42:12.878Z,921.89
2019-02-25T04:43:44.692Z,921.83
2019-02-25T04:45:16.512Z,921.80
2019-02-25T04:46:48.327Z,921.75
2019-02-25T04:48:20.145Z,921.70
2019-02-25T04:49:51.960Z,921.68
2019-02-25T04:51:23.780Z,921.71
2019-02-25T04:52:55.591Z,921.76
2019-02-25T04:54:27.410Z,921.77
2019-02-25T04:55:59.224Z,921.85
2019-02-25T04:57:31.141Z,921.96
2019-02-25T04:59:02.855Z,922.09
2019-02-25T05:00:34.688Z,922.10
2019-02-25T05:02:06.491Z,922.11
2019-02-25T05:03:38.307Z,922.04
2019-02-25T05:05:10.122Z,922.04
2019-02-25T05:06:41.939Z,921.99
2019-02-25T05:08:13.754Z,921.99
2019-02-25T05:09:45.573Z,921.95
2019-02-25T05:11:17.388Z,921.96
2019-02-25T05:12:49.203Z,921.94
2019-02-25T05:14:21.019Z,921.91
2019-02-25T05:15:52.936Z,921.88
2019-02-25T05:17:24.652Z,921.84
2019-02-25T05:18:56.469Z,921.79
2019-02-25T05:20:28.287Z,921.84
2019-02-25T05:22:00.101Z,921.79
2019-02-25T05:23:31.917Z,921.82
2019-02-25T05:25:03.736Z,921.78
2019-02-25T05:26:35.557Z,921.80
2019-02-25T05:28:07.465Z,921.80
2019-02-25T05:29:39.183Z,921.82
2019-02-25T05:31:11.001Z,921.87
2019-02-25T05:32:42.816Z,921.87
2019-02-25T05:34:14.732Z,921.86
2019-02-25T05:35:46.454Z,921.94
2019-02-25T05:37:18.265Z,921.97
2019-02-25T05:38:50.082Z,922.05
2019-02-25T05:40:21.898Z,922.03
2019-02-25T05:41:53.714Z,922.09
2019-02-25T05:43:25.533Z,922.08
2019-02-25T05:44:57.350Z,922.05
2019-02-25T05:46:29.264Z,922.07
2019-02-25T05:48:00.980Z,922.09
2019-02-25T05:49:32.797Z,922.08
2019-02-25T05:51:04.614Z,922.08
2019-02-25T05:52:36.531Z,922.09
2019-02-25T05:54:08.244Z,922.05
2019-02-25T05:55:40.083Z,922.04
2019-02-25T05:57:11.880Z,922.02
2019-02-25T05:58:43.704Z,922.04
2019-02-25T06:00:15.512Z,922.01
2019-02-25T06:01:47.330Z,922.05
2019-02-25T06:03:19.202Z,922.07
2019-02-25T06:04:50.961Z,922.09
2019-02-25T06:06:22.777Z,922.06
2019-02-25T06:07:54.595Z,922.08
2019-02-25T06:09:26.410Z,922.09
2019-02-25T06:10:58.325Z,922.09
2019-02-25T06:12:30.043Z,922.10
2019-02-25T06:14:01.859Z,922.18
2019-02-25T06:15:33.680Z,922.17
2019-02-25T06:17:05.494Z,922.19
2019-02-25T06:18:37.307Z,922.19
2019-02-25T06:20:09.125Z,922.15
2019-02-25T06:21:40.951Z,922.21
2019-02-25T06:23:12.765Z,922.16
2019-02-25T06:24:44.573Z,922.17
2019-02-25T06:26:16.389Z,922.12
2019-02-25T06:27:48.210Z,922.14
2019-02-25T06:29:20.121Z,922.14
2019-02-25T06:30:51.838Z,922.15
2019-02-25T06:32:23.654Z,922.14
2019-02-25T06:33:55.470Z,922.14
2019-02-25T06:35:27.289Z,922.10
2019-02-25T06:36:59.102Z,922.09
2019-02-25T06:38:30.924Z,922.03
2019-02-25T06:40:02.735Z,922.07
2019-02-25T06:41:34.550Z,922.02
2019-02-25T06:43:06.366Z,922.04
2019-02-25T06:44:38.182Z,922.04
2019-02-25T06:46:09.998Z,922.07
2019-02-25T06:47:42.067Z,922.02
2019-02-25T06:49:13.629Z,922.05
2019-02-25T06:50:45.445Z,922.03
2019-02-25T06:52:17.263Z,922.03
2019-02-25T06:53:49.076Z,921.97
2019-02-25T06:55:20.893Z,922.01
2019-02-25T06:56:52.713Z,921.96
2019-02-25T06:58:24.542Z,921.96
2019-02-25T06:59:56.539Z,921.97
2019-02-25T07:01:28.156Z,921.96
2019-02-25T07:02:59.972Z,922.03
2019-02-25T07:04:31.788Z,921.99
2019-02-25T07:06:03.705Z,921.95
2019-02-25T07:07:35.420Z,921.98
2019-02-25T07:09:07.236Z,921.99
2019-02-25T07:10:39.053Z,921.97
2019-02-25T07:12:10.868Z,921.95
2019-02-25T07:13:42.683Z,921.95
2019-02-25T07:15:14.500Z,921.98
2019-02-25T07:16:46.316Z,921.95
2019-02-25T07:18:18.131Z,921.92
2019-02-25T07:19:49.948Z,921.94
2019-02-25T07:21:21.763Z,921.87
2019-02-25T07:22:53.583Z,921.87
2019-02-25T07:24:25.497Z,921.92
2019-02-25T07:25:57.212Z,921.91
2019-02-25T07:27:29.026Z,921.90
2019-02-25T07:29:00.843Z,921.88
2019-02-25T07:30:32.659Z,921.92
2019-02-25T07:32:04.477Z,921.93
2019-02-25T07:33:36.293Z,921.94
2019-02-25T07:35:08.108Z,921.96
2019-02-25T07:36:40.172Z,921.96
2019-02-25T07:38:11.741Z,921.88
2019-02-25T07:39:43.555Z,921.86
2019-02-25T07:41:15.370Z,921.89
2019-02-25T07:42:47.286Z,921.89
2019-02-25T07:44:19.005Z,921.87
2019-02-25T07:45:50.817Z,921.86
2019-02-25T07:47:22.633Z,921.81
2019-02-25T07:48:54.449Z,921.87
2019-02-25T07:50:26.264Z,921.86
2019-02-25T07:51:58.080Z,921.93
2019-02-25T07:53:29.897Z,921.91
2019-02-25T07:55:01.711Z,921.90
2019-02-25T07:56:33.529Z,921.78
2019-02-25T07:58:05.351Z,921.84
2019-02-25T07:59:37.158Z,921.88
2019-02-25T08:01:09.074Z,921.87
2019-02-25T08:02:40.798Z,921.84
2019-02-25T08:04:12.607Z,921.87
2019-02-25T08:05:44.422Z,921.86
2019-02-25T08:07:16.489Z,921.87
2019-02-25T08:08:48.054Z,921.87
2019-02-25T08:10:19.869Z,921.90
2019-02-25T08:11:51.685Z,921.94
2019-02-25T08:13:23.502Z,921.96
2019-02-25T08:14:55.318Z,921.93
2019-02-25T08:16:27.131Z,921.96
2019-02-25T08:17:58.948Z,921.98
2019-02-25T08:19:30.864Z,922.00
2019-02-25T08:21:02.579Z,922.00
2019-02-25T08:22:34.396Z,922.01
2019-02-25T08:24:06.211Z,922.01
2019-02-25T08:25:38.027Z,922.01
2019-02-25T08:27:09.842Z,921.98
2019-02-25T08:28:41.658Z,921.96
2019-02-25T08:30:13.473Z,921.96
2019-02-25T08:31:45.289Z,921.93
2019-02-25T08:33:17.108Z,921.96
2019-02-25T08:34:48.919Z,921.93
2019-02-25T08:36:20.737Z,921.92
2019-02-25T08:37:52.903Z,921.88
2019-02-25T08:39:24.368Z,921.89
2019-02-25T08:40:56.185Z,921.85
2019-02-25T08:42:28.001Z,921.84
2019-02-25T08:43:59.815Z,921.85
2019-02-25T08:45:31.631Z,921.85
2019-02-25T08:47:03.448Z,921.87
2019-02-25T08:48:35.262Z,921.87
2019-02-25T08:50:07.081Z,921.91
2019-02-25T08:51:38.927Z,921.94
2019-02-25T08:53:10.709Z,921.94
2019-02-25T08:54:42.527Z,921.94
2019-02-25T08:56:14.442Z,921.91
2019-02-25T08:57:46.157Z,921.93
2019-02-25T08:59:17.974Z,921.92
2019-02-25T09:00:49.790Z,921.94
2019-02-25T09:02:21.605Z,921.97
2019-02-25T09:03:53.421Z,922.01
2019-02-25T09:05:25.236Z,921.97
2019-02-25T09:06:57.053Z,921.99
2019-02-25T09:08:29.118Z,922.03
2019-02-25T09:10:00.684Z,922.07
2019-02-25T09:11:32.500Z,922.12
2019-02-25T09:13:04.316Z,922.14
2019-02-25T09:14:36.934Z,922.14
2019-02-25T09:16:07.948Z,922.21
2019-02-25T09:17:39.764Z,922.11
2019-02-25T09:19:11.782Z,922.16
2019-02-25T09:20:43.395Z,922.15
2019-02-25T09:22:15.213Z,922.17
2019-02-25T09:23:47.027Z,922.23
2019-02-25T09:25:18.844Z,922.26
2019-02-25T09:26:50.659Z,922.29
2019-02-25T09:28:22.488Z,922.27
2019-02-25T09:29:54.300Z,922.29
2019-02-25T09:31:26.118Z,922.34
2019-02-25T09:32:58.228Z,922.38
2019-02-25T09:34:29.741Z,922.38
2019-02-25T09:36:02.064Z,922.39
2019-02-25T09:37:33.375Z,922.41
2019-02-25T09:39:05.193Z,922.39
2019-02-25T09:40:37.152Z,922.44
2019-02-25T09:42:08.821Z,922.43
2019-02-25T09:43:40.637Z,922.47
2019-02-25T09:45:12.455Z,922.53
2019-02-25T09:46:44.274Z,922.51
2019-02-25T09:48:16.086Z,922.54
2019-02-25T09:49:47.901Z,922.51
2019-02-25T09:51:20.521Z,922.55
2019-02-25T09:55:55.171Z,922.58
2019-02-25T09:57:26.987Z,922.58
2019-02-25T09:58:58.803Z,922.63
2019-02-25T10:02:02.436Z,922.68
2019-02-25T10:05:06.799Z,922.76
2019-02-25T10:06:38.194Z,922.76
2019-02-25T10:08:09.708Z,922.70
2019-02-25T10:12:45.613Z,922.67
2019-02-25T10:14:17.131Z,922.71
2019-02-25T10:15:49.632Z,922.73
2019-02-25T10:17:23.675Z,922.72
2019-02-25T10:18:52.671Z,922.78
2019-02-25T10:20:24.847Z,922.83
2019-02-25T10:21:56.131Z,922.86
2019-02-25T10:23:28.201Z,922.92
2019-02-25T10:24:59.836Z,922.91
2019-02-25T10:26:32.890Z,922.87
2019-02-25T10:28:03.824Z,922.89
2019-02-25T10:29:35.312Z,922.83
2019-02-25T10:31:07.631Z,922.95
2019-02-25T10:32:38.972Z,923.02
2019-02-25T10:34:10.678Z,923.02
2019-02-25T10:35:42.487Z,923.10
2019-02-25T10:37:15.602Z,923.13
2019-02-25T10:38:46.313Z,923.22
2019-02-25T10:40:25.367Z,923.26
2019-02-25T10:41:53.383Z,923.30
2019-02-25T10:43:21.620Z,923.34
2019-02-25T10:44:54.105Z,923.40
2019-02-25T10:46:25.224Z,923.42
2019-02-25T10:47:58.765Z,923.45
2019-02-25T10:51:02.748Z,923.42
2019-02-25T10:52:33.014Z,923.41
2019-02-25T10:54:04.328Z,923.47
2019-02-25T10:55:36.405Z,923.41
2019-02-25T10:57:09.191Z,923.44
2019-02-25T11:00:13.816Z,923.51
2019-02-25T11:01:45.807Z,923.50
2019-02-25T11:03:17.001Z,923.49
2019-02-25T11:04:47.837Z,923.49
2019-02-25T11:06:19.148Z,923.47
2019-02-25T11:07:50.835Z,923.50
2019-02-25T11:09:23.106Z,923.42
2019-02-25T11:10:54.938Z,923.44
2019-02-25T11:12:27.983Z,923.47
2019-02-25T11:14:00.869Z,923.37
2019-02-25T11:17:02.289Z,923.47
2019-02-25T11:18:35.647Z,923.45
2019-02-25T11:20:05.735Z,923.45
2019-02-25T11:21:38.094Z,923.50
2019-02-25T11:23:12.100Z,923.42
2019-02-25T11:24:41.016Z,923.35
2019-02-25T11:26:12.778Z,923.29
2019-02-25T11:27:45.341Z,923.31
2019-02-25T11:29:16.492Z,923.29
2019-02-25T11:32:21.455Z,923.37
2019-02-25T11:33:51.918Z,923.34
2019-02-25T11:35:24.717Z,923.35
2019-02-25T11:36:57.204Z,923.35
2019-02-25T11:38:28.812Z,923.37
2019-02-25T11:40:01.182Z,923.33
2019-02-25T11:41:31.860Z,923.38
2019-02-25T11:43:03.301Z,923.48
2019-02-25T11:44:35.398Z,923.51
2019-02-25T11:46:06.474Z,923.49
2019-02-25T11:47:39.780Z,923.57
2019-02-25T11:49:10.746Z,923.55
2019-02-25T11:50:44.713Z,923.59
2019-02-25T11:52:13.536Z,923.58
2019-02-25T11:53:46.196Z,923.55
2019-02-25T11:55:17.212Z,923.61
2019-02-25T11:56:49.279Z,923.57
2019-02-25T11:58:21.204Z,923.53
2019-02-25T11:59:53.162Z,923.56
2019-02-25T12:01:24.471Z,923.60
2019-02-25T12:02:57.487Z,923.56
2019-02-25T12:04:28.785Z,923.41
2019-02-25T12:06:00.472Z,923.31
2019-02-25T12:07:31.970Z,923.34
2019-02-25T12:09:04.971Z,923.38
2019-02-25T12:10:35.577Z,923.42
2019-02-25T12:12:07.584Z,923.48
2019-02-25T12:13:39.409Z,923.61
2019-02-25T12:15:11.103Z,923.64
2019-02-25T12:16:45.643Z,923.68
2019-02-25T12:18:16.921Z,923.60
2019-02-25T12:19:47.778Z,923.61
2019-02-25T12:21:18.229Z,923.53
2019-02-25T12:22:50.014Z,923.75
2019-02-25T12:24:22.182Z,923.80
2019-02-25T12:25:54.102Z,923.75
2019-02-25T12:27:25.648Z,923.57
2019-02-25T12:28:57.615Z,923.59
2019-02-25T12:32:01.681Z,923.61
2019-02-25T12:33:33.206Z,923.58
2019-02-25T12:35:05.066Z,923.56
2019-02-25T12:36:36.686Z,923.53
2019-02-25T12:38:09.427Z,923.51
2019-02-25T12:39:40.685Z,923.53
2019-02-25T12:41:12.994Z,923.65
2019-02-25T12:42:44.008Z,923.71
2019-02-25T12:44:15.771Z,923.75
2019-02-25T12:45:47.807Z,923.83
2019-02-25T12:47:19.674Z,923.77
2019-02-25T12:48:51.357Z,923.61
2019-02-25T12:50:23.298Z,923.64
2019-02-25T12:51:56.858Z,923.79
2019-02-25T12:53:28.520Z,923.64
2019-02-25T12:54:59.782Z,923.64
2019-02-25T12:56:31.061Z,923.72
2019-02-25T12:58:04.091Z,923.58
2019-02-25T12:59:34.547Z,923.50
2019-02-25T13:01:06.137Z,923.64
2019-02-25T13:02:38.232Z,923.70
2019-02-25T13:04:09.307Z,923.62
2019-02-25T13:05:41.442Z,923.57
2019-02-25T13:07:13.508Z,923.64
2019-02-25T13:08:45.189Z,923.88
2019-02-25T13:10:17.789Z,923.89
2019-02-25T13:11:48.994Z,923.78
2019-02-25T13:13:20.606Z,924.04
2019-02-25T13:14:52.641Z,923.77
2019-02-25T13:16:24.595Z,923.97
2019-02-25T13:17:56.047Z,923.94
2019-02-25T13:19:28.816Z,924.00
2019-02-25T13:20:59.746Z,923.95
2019-02-25T13:22:32.166Z,923.82
2019-02-25T13:25:35.199Z,923.78
2019-02-25T13:27:08.458Z,923.80
2019-02-25T13:28:41.831Z,923.83
2019-02-25T13:30:11.418Z,923.87
2019-02-25T13:31:42.771Z,923.78
2019-02-25T13:33:14.441Z,923.62
2019-02-25T13:34:46.238Z,923.76
2019-02-25T13:36:17.662Z,923.74
2019-02-25T13:39:22.542Z,923.58
2019-02-25T13:42:25.259Z,923.58
2019-02-25T13:43:56.861Z,923.60
2019-02-25T13:45:29.008Z,923.38
2019-02-25T13:47:01.172Z,923.44
2019-02-25T13:48:33.073Z,923.47
2019-02-25T13:50:05.163Z,923.59
2019-02-25T13:51:36.280Z,923.55
2019-02-25T13:53:09.385Z,923.61
2019-02-25T13:54:40.608Z,923.50
2019-02-25T13:56:11.821Z,923.47
2019-02-25T13:57:43.877Z,923.41
2019-02-25T13:59:15.510Z,923.47
2019-02-25T14:00:48.129Z,923.46
2019-02-25T14:02:18.868Z,923.53
2019-02-25T14:03:50.667Z,923.57
2019-02-25T14:05:22.479Z,923.55
2019-02-25T14:06:55.187Z,923.51
2019-02-25T14:08:26.477Z,923.54
2019-02-25T14:09:58.063Z,923.54
2019-02-25T14:11:30.518Z,923.67
2019-02-25T14:13:01.728Z,923.77
2019-02-25T14:14:34.288Z,923.70
2019-02-25T14:16:06.246Z,924.02
2019-02-25T14:19:08.955Z,923.78
2019-02-25T14:20:42.407Z,923.81
2019-02-25T14:22:14.818Z,923.92
2019-02-25T14:23:45.061Z,923.93
2019-02-25T14:25:16.201Z,923.84
2019-02-25T14:26:48.034Z,923.72
2019-02-25T14:28:19.989Z,923.85
2019-02-25T14:29:51.817Z,923.73
2019-02-25T14:31:23.518Z,923.60
2019-02-25T14:34:27.465Z,923.40
2019-02-25T14:35:59.369Z,923.58
2019-02-25T14:37:31.558Z,923.76
2019-02-25T14:39:04.525Z,923.46
2019-02-25T14:40:39.304Z,923.37
2019-02-25T14:42:07.344Z,923.39
2019-02-25T14:43:46.153Z,923.29
2019-02-25T14:46:42.461Z,923.38
2019-02-25T14:48:18.241Z,923.14
2019-02-25T14:49:45.458Z,923.18
2019-02-25T14:54:22.232Z,923.28
2019-02-25T14:55:55.214Z,923.30
2019-02-25T14:57:24.821Z,923.19
2019-02-25T15:00:31.370Z,923.16
2019-02-25T15:02:02.115Z,923.35
2019-02-25T15:03:31.845Z,923.17
2019-02-25T15:05:03.976Z,923.19
2019-02-25T15:08:07.320Z,923.24
2019-02-25T15:09:40.873Z,923.30
2019-02-25T15:11:12.663Z,923.23
2019-02-25T15:12:42.803Z,923.28
2019-02-25T15:14:16.719Z,923.33
2019-02-25T15:15:47.564Z,923.30
2019-02-25T15:17:18.281Z,923.37
2019-02-25T15:18:50.300Z,923.58
2019-02-25T15:20:23.389Z,923.36
2019-02-25T15:21:54.323Z,923.48
2019-02-25T15:23:27.472Z,923.54
2019-02-25T15:24:59.131Z,923.54
2019-02-25T15:26:30.264Z,923.43
2019-02-25T15:28:01.076Z,923.34
2019-02-25T15:31:06.848Z,923.39
2019-02-25T15:34:10.579Z,923.19
2019-02-25T15:35:41.671Z,923.31
2019-02-25T15:38:43.848Z,923.07
2019-02-25T15:40:18.636Z,923.18
2019-02-25T15:41:48.695Z,923.02
2019-02-25T15:44:51.888Z,922.98
2019-02-25T15:47:55.550Z,922.89
2019-02-25T15:49:28.162Z,922.89
2019-02-25T15:51:00.684Z,922.80
2019-02-25T15:52:39.530Z,922.80
2019-02-25T15:54:02.748Z,922.71
2019-02-25T15:57:05.770Z,922.78
2019-02-25T15:58:37.905Z,922.44
2019-02-25T16:00:09.427Z,922.47
2019-02-25T16:01:41.258Z,922.45
2019-02-25T16:03:13.785Z,922.46
2019-02-25T16:06:16.742Z,922.32
2019-02-25T16:07:49.750Z,922.26
2019-02-25T16:09:23.780Z,922.16
2019-02-25T16:10:53.378Z,922.28
2019-02-25T16:12:25.416Z,922.14
2019-02-25T16:15:27.934Z,922.18
2019-02-25T16:17:00.074Z,922.08
2019-02-25T16:18:31.381Z,922.12
2019-02-25T16:21:35.276Z,922.09
2019-02-25T16:23:08.108Z,922.11
2019-02-25T16:24:38.695Z,921.98
2019-02-25T16:26:12.980Z,921.96
2019-02-25T16:27:45.028Z,922.04
2019-02-25T16:29:14.187Z,922.08
2019-02-25T16:30:46.893Z,921.96
2019-02-25T16:32:19.264Z,921.99
2019-02-25T16:33:51.290Z,922.14
2019-02-25T16:35:21.592Z,921.91
2019-02-25T16:36:53.759Z,921.93
2019-02-25T16:38:27.189Z,922.01
2019-02-25T16:40:00.512Z,921.88
2019-02-25T16:41:32.239Z,921.86
2019-02-25T16:43:02.791Z,921.84
2019-02-25T16:44:32.603Z,921.86
2019-02-25T16:46:06.461Z,921.72
2019-02-25T16:49:09.169Z,921.77
2019-02-25T16:50:44.006Z,921.67
2019-02-25T16:52:15.811Z,921.62
2019-02-25T16:53:45.426Z,921.71
2019-02-25T16:55:17.605Z,921.86
2019-02-25T16:56:48.211Z,921.53
2019-02-25T16:58:20.392Z,921.39
2019-02-25T16:59:53.548Z,921.66
2019-02-25T17:01:25.783Z,921.49
2019-02-25T17:02:54.809Z,921.54
2019-02-25T17:04:27.747Z,921.44
2019-02-25T17:05:58.250Z,921.52
2019-02-25T17:07:30.022Z,921.51
2019-02-25T17:09:01.833Z,921.42
2019-02-25T17:10:34.558Z,921.36
2019-02-25T17:12:06.823Z,921.41
2019-02-25T17:13:39.290Z,921.37
2019-02-25T17:15:10.195Z,921.58
2019-02-25T17:16:41.788Z,921.09
2019-02-25T17:18:15.797Z,921.20
2019-02-25T17:19:47.272Z,921.19
2019-02-25T17:21:17.377Z,921.23
2019-02-25T17:24:23.714Z,921.15
2019-02-25T17:25:52.047Z,921.25
2019-02-25T17:27:24.455Z,921.20
2019-02-25T17:28:56.385Z,921.08
2019-02-25T17:30:27.833Z,921.14
2019-02-25T17:32:01.254Z,921.08
2019-02-25T17:33:32.665Z,921.11
2019-02-25T17:36:36.572Z,921.02
2019-02-25T17:38:06.704Z,920.97
2019-02-25T17:39:40.509Z,920.98
2019-02-25T17:41:10.805Z,921.13
2019-02-25T17:42:44.965Z,921.30
2019-02-25T17:44:13.951Z,920.96
2019-02-25T17:45:45.632Z,921.05
2019-02-25T17:47:24.513Z,920.98
2019-02-25T17:48:49.296Z,920.89
2019-02-25T17:50:21.318Z,920.81
2019-02-25T17:51:53.766Z,920.85
2019-02-25T17:53:26.148Z,920.85
2019-02-25T17:54:56.603Z,920.79
2019-02-25T17:56:28.973Z,920.97
2019-02-25T17:59:32.530Z,921.06
2019-02-25T18:01:05.711Z,920.86
2019-02-25T18:02:37.685Z,920.72
2019-02-25T18:04:08.787Z,920.70
2019-02-25T18:05:40.679Z,920.69
2019-02-25T18:07:11.213Z,920.72
2019-02-25T18:10:15.172Z,920.57
2019-02-25T18:13:18.524Z,920.51
2019-02-25T18:14:50.349Z,920.42
2019-02-25T18:16:22.176Z,920.44
2019-02-25T18:17:54.003Z,920.32
2019-02-25T18:22:30.321Z,920.27
2019-02-25T18:24:01.722Z,920.27
2019-02-25T18:25:33.165Z,920.34
2019-02-25T18:28:37.411Z,920.44
2019-02-25T18:31:40.519Z,920.94
2019-02-25T18:33:12.277Z,921.12
2019-02-25T18:34:44.406Z,921.00
2019-02-25T18:36:16.796Z,921.03
2019-02-25T18:37:49.599Z,920.91
2019-02-25T18:39:25.336Z,920.87
2019-02-25T18:40:55.698Z,920.91
2019-02-25T18:42:26.015Z,920.95
2019-02-25T18:43:59.070Z,920.95
2019-02-25T18:45:29.065Z,920.96
2019-02-25T18:47:00.371Z,920.93
2019-02-25T18:48:31.606Z,920.71
2019-02-25T18:50:03.330Z,920.78
2019-02-25T18:51:37.331Z,920.71
2019-02-25T18:53:06.365Z,920.54
2019-02-25T18:54:39.089Z,920.38
2019-02-25T18:56:11.814Z,920.32
2019-02-25T19:00:47.240Z,920.33
2019-02-25T19:02:17.022Z,920.29
2019-02-25T19:03:50.468Z,920.33
2019-02-25T19:05:21.314Z,920.20
2019-02-25T19:06:52.470Z,920.14
2019-02-25T19:08:25.030Z,920.21
2019-02-25T19:09:58.081Z,920.32
2019-02-25T19:11:28.364Z,920.28
2019-02-25T19:13:00.994Z,920.41
2019-02-25T19:16:03.715Z,920.44
2019-02-25T19:17:35.237Z,920.36
2019-02-25T19:19:08.076Z,920.28
2019-02-25T19:20:40.783Z,920.26
2019-02-25T19:23:44.058Z,920.26
2019-02-25T19:25:15.762Z,920.28
2019-02-25T19:26:47.280Z,920.24
2019-02-25T19:28:19.664Z,920.24
2019-02-25T19:29:51.548Z,920.16
2019-02-25T19:34:25.751Z,920.21
2019-02-25T19:35:58.805Z,920.17
2019-02-25T19:37:32.903Z,920.15
2019-02-25T19:40:33.146Z,920.23
2019-02-25T19:45:10.098Z,920.40
2019-02-25T19:46:39.920Z,920.53
2019-02-25T19:48:11.743Z,920.64
2019-02-25T19:49:45.711Z,920.63
2019-02-25T19:52:47.323Z,920.72
2019-02-25T19:54:19.571Z,920.70
2019-02-25T19:55:51.746Z,920.70
2019-02-25T19:57:23.687Z,920.65
2019-02-25T19:58:55.912Z,920.65
2019-02-25T20:00:28.193Z,920.55
2019-02-25T20:01:58.185Z,920.53
2019-02-25T20:03:31.013Z,920.56
2019-02-25T20:05:01.830Z,920.63
2019-02-25T20:08:05.486Z,920.50
2019-02-25T20:09:40.277Z,920.45
2019-02-25T20:14:16.615Z,920.45
2019-02-25T20:15:46.628Z,920.47
2019-02-25T20:17:19.101Z,920.53
2019-02-25T20:18:49.184Z,920.59
2019-02-25T20:20:20.078Z,920.56
2019-02-25T20:21:52.958Z,920.55
2019-02-25T20:24:57.738Z,920.29
2019-02-25T20:26:27.583Z,920.18
2019-02-25T20:32:36.451Z,920.20